Time;durP1;ratioP1;P1;durP2;ratioP2;P2;SDS_P1;SDS_P2;PMS_P1;PMS_P2;Temp;Humidity;BMP_temperature;BMP_pressure;BME280_temperature;BME280_humidity;BME280_pressure;Samples;Min_cycle;Max_cycle;Signal;HPM_P1;HPM_P2
2023/05/22 00:01:41;;;;;;;17.58;7.93;;;;;;;;;;6304308;22;20072;-95
2023/05/22 00:04:12;;;;;;;24.73;8.18;;;;;;;;;;6306076;22;20011;-96
2023/05/22 00:06:37;;;;;;;16.50;7.65;;;;;;;;;;6306458;22;20018;-95
2023/05/22 00:09:02;;;;;;;14.85;8.05;;;;;;;;;;6306618;22;20008;-96
2023/05/22 00:11:30;;;;;;;19.08;7.97;;;;;;;;;;6305669;22;20009;-95
2023/05/22 00:13:55;;;;;;;18.90;8.90;;;;;;;;;;6305740;22;20094;-96
2023/05/22 00:16:21;;;;;;;21.33;8.15;;;;;;;;;;6306282;22;19995;-96
2023/05/22 00:18:48;;;;;;;18.80;7.72;;;;;;;;;;6306137;22;20049;-95
2023/05/22 00:21:15;;;;;;;13.57;7.32;;;;;;;;;;6305684;22;20022;-95
2023/05/22 00:23:43;;;;;;;12.88;6.85;;;;;;;;;;6306229;22;20303;-95
2023/05/22 00:26:08;;;;;;;20.75;8.90;;;;;;;;;;6306684;22;20003;-96
2023/05/22 00:28:34;;;;;;;16.95;7.85;;;;;;;;;;6307505;22;20007;-94
2023/05/22 00:30:59;;;;;;;18.20;7.85;;;;;;;;;;6307591;22;20015;-95
2023/05/22 00:33:24;;;;;;;21.23;8.88;;;;;;;;;;6306565;22;20478;-95
2023/05/22 00:35:50;;;;;;;18.10;8.52;;;;;;;;;;6307347;22;20015;-96
2023/05/22 00:38:32;;;;;;;14.52;7.40;;;;;;;;;;6307351;22;20437;-95
2023/05/22 00:40:58;;;;;;;21.40;9.00;;;;;;;;;;6306321;22;19999;-95
2023/05/22 00:43:23;;;;;;;22.83;8.45;;;;;;;;;;6307187;22;20031;-94
2023/05/22 00:45:48;;;;;;;17.05;8.57;;;;;;;;;;6306493;22;20041;-96
2023/05/22 00:48:14;;;;;;;18.90;8.25;;;;;;;;;;6307088;22;20249;-95
2023/05/22 00:50:49;;;;;;;18.40;8.95;;;;;;;;;;6307120;22;20030;-95
2023/05/22 00:53:14;;;;;;;17.98;9.15;;;;;;;;;;6307344;22;20014;-95
2023/05/22 00:55:40;;;;;;;25.13;9.43;;;;;;;;;;6306091;22;20011;-95
2023/05/22 00:58:12;;;;;;;24.30;8.57;;;;;;;;;;6306169;22;20023;-95
2023/05/22 01:00:40;;;;;;;;;;;;;;;;;;6306648;22;20460;-95
2023/05/22 01:03:07;;;;;;;20.67;7.70;;;;;;;;;;6303710;22;19906;-94
2023/05/22 01:05:33;;;;;;;18.20;8.82;;;;;;;;;;6307328;22;19995;-95
2023/05/22 01:07:59;;;;;;;28.08;10.38;;;;;;;;;;6304906;22;20080;-95
2023/05/22 01:10:25;;;;;;;18.17;9.05;;;;;;;;;;6279408;22;20033;-94
2023/05/22 01:12:50;;;;;;;22.40;9.40;;;;;;;;;;6305529;22;19997;-95
2023/05/22 01:15:18;;;;;;;22.48;10.25;;;;;;;;;;6303950;22;20038;-95
2023/05/22 01:17:56;;;;;;;18.60;9.63;;;;;;;;;;6306287;22;20023;-94
2023/05/22 01:20:33;;;;;;;17.40;8.70;;;;;;;;;;6302995;22;20040;-95
2023/05/22 01:23:26;;;;;;;20.60;9.85;;;;;;;;;;6303006;22;19995;-96
2023/05/22 01:25:51;;;;;;;22.52;11.15;;;;;;;;;;6306498;22;20082;-95
2023/05/22 01:28:37;;;;;;;25.77;11.10;;;;;;;;;;6304488;22;20015;-96
2023/05/22 01:31:10;;;;;;;20.15;10.50;;;;;;;;;;6280503;22;20019;-96
2023/05/22 01:33:46;;;;;;;26.02;11.07;;;;;;;;;;6280373;22;19999;-96
2023/05/22 01:36:14;;;;;;;25.15;11.73;;;;;;;;;;6280500;22;20003;-96
2023/05/22 01:38:40;;;;;;;24.02;11.75;;;;;;;;;;6281513;22;20011;-95
2023/05/22 01:41:06;;;;;;;29.02;12.40;;;;;;;;;;6281091;22;20003;-96
2023/05/22 01:43:31;;;;;;;29.65;13.07;;;;;;;;;;6278734;22;19999;-95
2023/05/22 01:45:56;;;;;;;33.05;14.00;;;;;;;;;;6303165;22;20010;-96
2023/05/22 01:48:22;;;;;;;33.20;14.65;;;;;;;;;;6304766;22;20419;-96
2023/05/22 01:50:53;;;;;;;30.67;13.82;;;;;;;;;;6305501;22;20011;-96
2023/05/22 01:53:31;;;;;;;27.80;14.38;;;;;;;;;;6279904;22;20379;-94
2023/05/22 01:56:00;;;;;;;29.83;13.13;;;;;;;;;;6281969;22;20083;-95
2023/05/22 01:58:25;;;;;;;29.75;13.98;;;;;;;;;;6279699;22;20135;-95
2023/05/22 02:00:53;;;;;;;33.28;15.48;;;;;;;;;;6306760;22;20008;-95
2023/05/22 02:03:23;;;;;;;33.40;15.65;;;;;;;;;;6280396;22;20090;-95
2023/05/22 02:05:52;;;;;;;38.72;14.90;;;;;;;;;;6281372;22;20011;-95
2023/05/22 02:08:19;;;;;;;32.08;14.80;;;;;;;;;;6281409;22;20537;-94
2023/05/22 02:10:45;;;;;;;33.83;15.65;;;;;;;;;;6281601;22;20019;-95
2023/05/22 02:13:10;;;;;;;30.48;13.30;;;;;;;;;;6279602;22;20003;-96
2023/05/22 02:15:36;;;;;;;31.70;15.43;;;;;;;;;;6280629;22;20030;-95
2023/05/22 02:18:04;;;;;;;35.75;16.27;;;;;;;;;;6279467;22;20090;-95
2023/05/22 02:20:32;;;;;;;37.95;16.40;;;;;;;;;;6306362;22;19999;-95
2023/05/22 02:22:57;;;;;;;34.40;15.82;;;;;;;;;;6306377;22;20011;-95
2023/05/22 02:25:25;;;;;;;32.50;15.02;;;;;;;;;;6306842;22;20417;-96
2023/05/22 02:27:53;;;;;;;31.88;15.57;;;;;;;;;;6307118;22;19999;-96
2023/05/22 02:30:18;;;;;;;38.75;17.40;;;;;;;;;;6280411;22;20015;-94
2023/05/22 02:32:44;;;;;;;34.75;17.63;;;;;;;;;;6307439;22;20035;-95
2023/05/22 02:35:11;;;;;;;37.63;17.45;;;;;;;;;;6305671;22;20137;-95
2023/05/22 02:37:37;;;;;;;33.53;16.85;;;;;;;;;;6305982;22;19995;-96
2023/05/22 02:40:05;;;;;;;34.47;16.98;;;;;;;;;;6281075;22;20426;-95
2023/05/22 02:42:30;;;;;;;33.55;16.42;;;;;;;;;;6281994;22;20018;-95
2023/05/22 02:44:56;;;;;;;33.72;16.88;;;;;;;;;;6306259;22;20055;-96
2023/05/22 02:47:21;;;;;;;37.10;17.52;;;;;;;;;;6306327;22;20004;-95
2023/05/22 02:49:51;;;;;;;43.53;18.83;;;;;;;;;;6307280;22;20039;-95
2023/05/22 02:52:17;;;;;;;38.13;16.70;;;;;;;;;;6281730;22;20090;-96
2023/05/22 02:54:42;;;;;;;37.47;19.20;;;;;;;;;;6306589;22;20003;-95
2023/05/22 02:57:07;;;;;;;43.65;19.17;;;;;;;;;;6306736;22;20006;-95
2023/05/22 02:59:40;;;;;;;45.65;20.20;;;;;;;;;;6306717;22;20003;-94
2023/05/22 03:02:05;;;;;;;41.22;16.05;;;;;;;;;;6306404;22;20080;-95
2023/05/22 03:04:31;;;;;;;42.47;19.55;;;;;;;;;;6306180;22;19999;-95
2023/05/22 03:06:57;;;;;;;44.55;18.35;;;;;;;;;;6306182;22;20003;-95
2023/05/22 03:09:24;;;;;;;34.30;15.65;;;;;;;;;;6305795;22;20014;-95
2023/05/22 03:11:50;;;;;;;47.63;20.20;;;;;;;;;;6306560;22;19999;-95
2023/05/22 03:14:15;;;;;;;47.45;20.63;;;;;;;;;;6306120;22;20087;-95
2023/05/22 03:16:40;;;;;;;45.60;19.75;;;;;;;;;;6307350;22;20451;-96
2023/05/22 03:19:09;;;;;;;44.28;19.98;;;;;;;;;;6305805;22;20563;-95
2023/05/22 03:21:35;;;;;;;51.85;19.77;;;;;;;;;;6278929;22;20007;-94
2023/05/22 03:24:00;;;;;;;49.85;20.10;;;;;;;;;;6307441;22;20299;-94
2023/05/22 03:26:29;;;;;;;48.88;20.13;;;;;;;;;;6279074;22;20034;-95
2023/05/22 03:28:58;;;;;;;50.10;20.98;;;;;;;;;;6307673;22;20042;-95
2023/05/22 03:31:23;;;;;;;53.75;22.65;;;;;;;;;;6279309;22;20006;-96
2023/05/22 03:33:48;;;;;;;45.88;19.42;;;;;;;;;;6279815;22;20004;-95
2023/05/22 03:36:16;;;;;;;64.72;24.33;;;;;;;;;;6307383;22;20003;-96
2023/05/22 03:38:42;;;;;;;53.85;22.48;;;;;;;;;;6279570;22;20010;-96
2023/05/22 03:41:07;;;;;;;49.67;21.13;;;;;;;;;;6304828;22;20422;-95
2023/05/22 03:43:35;;;;;;;48.53;21.25;;;;;;;;;;6306917;22;20417;-95
2023/05/22 03:46:00;;;;;;;61.60;23.63;;;;;;;;;;6304371;22;20007;-94
2023/05/22 03:48:25;;;;;;;66.50;25.80;;;;;;;;;;6306036;22;20007;-96
2023/05/22 03:50:51;;;;;;;63.13;24.45;;;;;;;;;;6307001;22;20013;-95
2023/05/22 03:53:16;;;;;;;51.47;21.70;;;;;;;;;;6306556;22;20019;-95
2023/05/22 03:55:42;;;;;;;57.97;22.80;;;;;;;;;;6307650;22;20002;-94
2023/05/22 03:58:07;;;;;;;50.67;21.38;;;;;;;;;;6283601;22;20050;-96
2023/05/22 04:00:33;;;;;;;52.42;21.42;;;;;;;;;;6311732;22;20495;-95
2023/05/22 04:02:59;;;;;;;61.97;23.77;;;;;;;;;;6310918;22;20476;-95
2023/05/22 04:05:24;;;;;;;57.83;22.90;;;;;;;;;;6311578;22;20015;-93
2023/05/22 04:07:49;;;;;;;58.75;22.20;;;;;;;;;;6311760;22;19991;-95
2023/05/22 04:10:15;;;;;;;44.30;20.30;;;;;;;;;;6311921;22;20475;-94
2023/05/22 04:12:43;;;;;;;56.70;23.55;;;;;;;;;;6311395;22;20034;-94
2023/05/22 04:15:11;;;;;;;53.85;22.30;;;;;;;;;;6311001;22;20149;-95
2023/05/22 04:17:38;;;;;;;53.15;21.73;;;;;;;;;;6309997;22;19999;-96
2023/05/22 04:20:05;;;;;;;50.35;21.17;;;;;;;;;;6284261;22;20011;-95
2023/05/22 04:22:32;;;;;;;52.25;22.33;;;;;;;;;;6285265;22;20007;-96
2023/05/22 04:24:58;;;;;;;52.42;21.20;;;;;;;;;;6310998;22;19995;-95
2023/05/22 04:27:25;;;;;;;48.78;19.92;;;;;;;;;;6312079;22;20007;-95
2023/05/22 04:29:51;;;;;;;44.13;19.50;;;;;;;;;;6311799;22;20022;-96
2023/05/22 04:32:17;;;;;;;51.80;20.70;;;;;;;;;;6284786;22;19999;-96
2023/05/22 04:34:46;;;;;;;52.63;21.50;;;;;;;;;;6284160;22;20064;-95
2023/05/22 04:37:13;;;;;;;48.47;20.45;;;;;;;;;;6284009;22;20030;-96
2023/05/22 04:39:39;;;;;;;47.58;21.30;;;;;;;;;;6311916;22;20019;-95
2023/05/22 04:42:07;;;;;;;53.35;22.17;;;;;;;;;;6310872;22;20789;-94
2023/05/22 04:44:35;;;;;;;54.15;24.10;;;;;;;;;;6311373;22;20003;-95
2023/05/22 04:47:01;;;;;;;54.25;23.65;;;;;;;;;;6309858;22;20121;-95
2023/05/22 04:49:27;;;;;;;54.40;24.75;;;;;;;;;;6310891;22;20011;-95
2023/05/22 04:51:54;;;;;;;57.90;24.58;;;;;;;;;;6284952;22;20010;-94
2023/05/22 04:54:19;;;;;;;62.00;24.73;;;;;;;;;;6311029;22;20060;-94
2023/05/22 04:56:44;;;;;;;65.95;27.95;;;;;;;;;;6311603;22;20029;-95
2023/05/22 04:59:10;;;;;;;62.30;26.13;;;;;;;;;;6310029;22;20078;-96
2023/05/22 05:01:36;;;;;;;65.65;26.88;;;;;;;;;;6310354;22;20086;-95
2023/05/22 05:04:02;;;;;;;63.55;26.30;;;;;;;;;;6309537;22;20006;-96
2023/05/22 05:06:29;;;;;;;67.05;26.38;;;;;;;;;;6283976;22;20007;-96
2023/05/22 05:08:55;;;;;;;64.43;25.70;;;;;;;;;;6309088;22;20434;-95
2023/05/22 05:11:20;;;;;;;65.57;24.83;;;;;;;;;;6308880;22;19999;-96
2023/05/22 05:13:45;;;;;;;64.68;25.38;;;;;;;;;;6307851;22;20029;-96
2023/05/22 05:16:11;;;;;;;67.93;25.15;;;;;;;;;;6308787;22;19995;-95
2023/05/22 05:18:39;;;;;;;76.93;28.08;;;;;;;;;;6307847;22;20031;-95
2023/05/22 05:21:05;;;;;;;71.85;27.02;;;;;;;;;;6307785;22;19999;-95
2023/05/22 05:23:30;;;;;;;67.43;26.58;;;;;;;;;;6307671;22;20051;-96
2023/05/22 05:25:55;;;;;;;73.90;26.92;;;;;;;;;;6308524;22;20000;-96
2023/05/22 05:28:21;;;;;;;91.00;31.30;;;;;;;;;;6307296;22;20026;-95
2023/05/22 05:30:46;;;;;;;88.60;29.95;;;;;;;;;;6308655;22;20106;-96
2023/05/22 05:33:11;;;;;;;95.57;31.33;;;;;;;;;;6281199;22;20402;-95
2023/05/22 05:35:37;;;;;;;86.40;28.70;;;;;;;;;;6308090;22;20003;-96
2023/05/22 05:38:02;;;;;;;81.85;27.10;;;;;;;;;;6304928;22;20006;-96
2023/05/22 05:40:31;;;;;;;86.88;27.80;;;;;;;;;;6308224;22;20057;-94
2023/05/22 05:42:58;;;;;;;84.07;27.88;;;;;;;;;;6306643;22;20082;-96
2023/05/22 05:45:24;;;;;;;86.45;30.23;;;;;;;;;;6307593;22;20000;-93
2023/05/22 05:47:50;;;;;;;92.90;31.20;;;;;;;;;;6279782;22;20000;-94
2023/05/22 05:50:18;;;;;;;104.95;30.20;;;;;;;;;;6306410;22;20041;-94
2023/05/22 05:52:43;;;;;;;101.65;32.13;;;;;;;;;;6281939;22;20010;-96
2023/05/22 05:55:09;;;;;;;105.53;30.85;;;;;;;;;;6304417;22;20007;-96
2023/05/22 05:57:34;;;;;;;111.82;32.30;;;;;;;;;;6305322;22;19995;-95
2023/05/22 06:00:03;;;;;;;99.53;29.25;;;;;;;;;;6304544;22;19995;-95
2023/05/22 06:02:28;;;;;;;106.50;30.40;;;;;;;;;;6304525;22;20049;-96
2023/05/22 06:04:54;;;;;;;98.53;27.42;;;;;;;;;;6303122;22;20003;-95
2023/05/22 06:07:20;;;;;;;115.07;32.60;;;;;;;;;;6306864;22;20055;-93
2023/05/22 06:09:45;;;;;;;105.60;30.02;;;;;;;;;;6303110;22;20007;-94
2023/05/22 06:12:11;;;;;;;109.35;30.60;;;;;;;;;;6301612;22;20007;-95
2023/05/22 06:14:37;;;;;;;104.30;28.25;;;;;;;;;;6304878;22;20097;-96
2023/05/22 06:17:02;;;;;;;111.03;31.02;;;;;;;;;;6279212;22;20032;-95
2023/05/22 06:19:27;;;;;;;119.43;31.10;;;;;;;;;;6302981;22;19999;-95
2023/05/22 06:21:55;;;;;;;114.20;30.05;;;;;;;;;;6302725;22;20015;-95
2023/05/22 06:24:24;;;;;;;122.78;31.67;;;;;;;;;;6304949;22;19995;-95
2023/05/22 06:26:49;;;;;;;107.72;28.83;;;;;;;;;;6302326;22;20019;-96
2023/05/22 06:29:15;;;;;;;108.47;30.55;;;;;;;;;;6303187;22;20007;-96
2023/05/22 06:31:47;;;;;;;107.43;32.22;;;;;;;;;;6303683;22;20003;-95
2023/05/22 06:34:16;;;;;;;110.05;32.28;;;;;;;;;;6303278;22;20000;-93
2023/05/22 06:36:41;;;;;;;124.55;32.05;;;;;;;;;;6303429;22;20089;-96
2023/05/22 06:39:07;;;;;;;125.18;35.05;;;;;;;;;;6302506;22;20014;-95
2023/05/22 06:41:34;;;;;;;123.72;34.20;;;;;;;;;;6300109;22;20444;-95
2023/05/22 06:44:02;;;;;;;131.25;31.50;;;;;;;;;;6303606;22;20003;-94
2023/05/22 06:46:30;;;;;;;124.22;35.25;;;;;;;;;;6278253;22;20006;-95
2023/05/22 06:48:55;;;;;;;119.28;35.22;;;;;;;;;;6304488;22;20087;-95
2023/05/22 06:51:21;;;;;;;141.85;37.58;;;;;;;;;;6302001;22;20268;-94
2023/05/22 06:53:46;;;;;;;114.93;30.40;;;;;;;;;;6301202;22;20106;-95
2023/05/22 06:56:11;;;;;;;135.93;34.30;;;;;;;;;;6302788;22;20098;-95
2023/05/22 06:58:37;;;;;;;124.00;32.03;;;;;;;;;;6277625;22;20015;-95
2023/05/22 07:01:03;;;;;;;120.80;30.85;;;;;;;;;;6277686;22;20006;-96
2023/05/22 07:03:31;;;;;;;114.80;31.98;;;;;;;;;;6303263;22;20029;-95
2023/05/22 07:05:58;;;;;;;135.02;36.10;;;;;;;;;;6303370;22;20002;-96
2023/05/22 07:08:23;;;;;;;126.85;35.58;;;;;;;;;;6301825;22;19999;-95
2023/05/22 07:10:49;;;;;;;115.97;32.20;;;;;;;;;;6304066;22;20058;-96
2023/05/22 07:13:14;;;;;;;125.63;32.70;;;;;;;;;;6303602;22;20007;-95
2023/05/22 07:15:40;;;;;;;113.03;32.33;;;;;;;;;;6303807;22;20053;-95
2023/05/22 07:18:05;;;;;;;123.22;32.47;;;;;;;;;;6304651;22;20019;-94
2023/05/22 07:20:33;;;;;;;127.60;36.67;;;;;;;;;;6304718;22;20078;-96
2023/05/22 07:22:59;;;;;;;118.93;34.47;;;;;;;;;;6276136;22;20094;-95
2023/05/22 07:25:24;;;;;;;110.07;31.80;;;;;;;;;;6303607;22;20042;-94
2023/05/22 07:27:49;;;;;;;105.63;30.25;;;;;;;;;;6304335;22;20014;-96
2023/05/22 07:30:17;;;;;;;101.55;31.17;;;;;;;;;;6305259;22;20007;-95
2023/05/22 07:32:42;;;;;;;109.50;32.80;;;;;;;;;;6303248;22;20004;-94
2023/05/22 07:35:09;;;;;;;112.45;33.55;;;;;;;;;;6302963;22;20511;-94
2023/05/22 07:37:35;;;;;;;108.38;34.75;;;;;;;;;;6301542;22;20038;-96
2023/05/22 07:40:01;;;;;;;95.60;31.25;;;;;;;;;;6305161;22;20003;-94
2023/05/22 07:42:26;;;;;;;96.35;29.73;;;;;;;;;;6279155;22;20003;-94
2023/05/22 07:44:52;;;;;;;99.68;29.48;;;;;;;;;;6303121;22;20294;-95
2023/05/22 07:47:17;;;;;;;90.20;30.75;;;;;;;;;;6303834;22;20422;-94
2023/05/22 07:49:42;;;;;;;87.93;28.42;;;;;;;;;;6303619;22;20011;-94
2023/05/22 07:52:08;;;;;;;107.80;34.08;;;;;;;;;;6304539;22;20007;-93
2023/05/22 07:54:33;;;;;;;85.70;28.00;;;;;;;;;;6300484;22;20007;-94
2023/05/22 07:57:02;;;;;;;91.40;27.88;;;;;;;;;;6300944;22;20023;-95
2023/05/22 07:59:27;;;;;;;98.60;31.83;;;;;;;;;;6303451;22;20005;-94
2023/05/22 08:01:52;;;;;;;89.85;27.58;;;;;;;;;;6303781;22;20015;-95
2023/05/22 08:04:18;;;;;;;90.80;29.27;;;;;;;;;;6303141;22;20003;-95
2023/05/22 08:06:43;;;;;;;88.28;28.05;;;;;;;;;;6302910;22;19999;-96
2023/05/22 08:09:11;;;;;;;89.97;29.70;;;;;;;;;;6303163;22;20086;-95
2023/05/22 08:11:38;;;;;;;96.97;32.92;;;;;;;;;;6278916;22;20003;-94
2023/05/22 08:14:04;;;;;;;96.15;30.40;;;;;;;;;;6304339;22;20333;-94
2023/05/22 08:16:38;;;;;;;108.55;33.28;;;;;;;;;;6280105;22;20086;-96
2023/05/22 08:19:08;;;;;;;96.00;31.60;;;;;;;;;;6287811;22;20038;-96
2023/05/22 08:21:34;;;;;;;108.45;31.73;;;;;;;;;;6297937;22;20003;-94
2023/05/22 08:24:00;;;;;;;77.75;25.80;;;;;;;;;;6308589;22;20144;-96
2023/05/22 08:26:26;;;;;;;100.90;31.15;;;;;;;;;;6308883;22;20011;-94
2023/05/22 08:28:51;;;;;;;80.68;22.92;;;;;;;;;;6308674;22;20136;-96
2023/05/22 08:31:16;;;;;;;99.07;31.48;;;;;;;;;;6312005;22;20030;-93
2023/05/22 08:33:42;;;;;;;107.38;32.78;;;;;;;;;;6277866;22;20105;-95
2023/05/22 08:36:07;;;;;;;97.63;32.42;;;;;;;;;;6303231;22;20000;-94
2023/05/22 08:38:32;;;;;;;89.35;31.50;;;;;;;;;;6303714;22;20022;-94
2023/05/22 08:40:58;;;;;;;109.55;32.60;;;;;;;;;;6304449;22;19999;-95
2023/05/22 08:43:24;;;;;;;101.90;33.60;;;;;;;;;;6278209;22;20169;-94
2023/05/22 08:45:54;;;;;;;98.97;32.38;;;;;;;;;;6304881;22;20422;-95
2023/05/22 08:48:22;;;;;;;98.82;34.10;;;;;;;;;;6276766;22;20026;-94
2023/05/22 08:50:55;;;;;;;105.85;34.45;;;;;;;;;;6279787;22;20044;-94
2023/05/22 08:53:22;;;;;;;100.85;33.85;;;;;;;;;;6278436;22;19995;-95
2023/05/22 08:55:48;;;;;;;103.93;35.25;;;;;;;;;;6278377;22;20039;-95
2023/05/22 08:58:14;;;;;;;108.10;35.13;;;;;;;;;;6305055;22;20440;-95
2023/05/22 09:00:40;;;;;;;101.65;33.42;;;;;;;;;;6279483;22;20003;-94
2023/05/22 09:03:08;;;;;;;106.97;34.72;;;;;;;;;;6279004;22;20006;-94
2023/05/22 09:05:35;;;;;;;96.18;34.80;;;;;;;;;;6305407;22;20061;-92
2023/05/22 09:08:01;;;;;;;101.15;36.10;;;;;;;;;;6279308;22;20102;-93
2023/05/22 09:10:26;;;;;;;98.97;34.70;;;;;;;;;;6303405;22;20019;-94
2023/05/22 09:13:06;;;;;;;91.32;30.50;;;;;;;;;;6304004;22;20060;-95
2023/05/22 09:15:32;;;;;;;72.85;27.45;;;;;;;;;;6278018;22;20337;-94
2023/05/22 09:17:58;;;;;;;100.95;34.10;;;;;;;;;;6278479;22;20007;-94
2023/05/22 09:20:23;;;;;;;96.22;33.25;;;;;;;;;;6278364;22;20114;-94
2023/05/22 09:22:48;;;;;;;89.13;33.58;;;;;;;;;;6277390;22;20003;-93
2023/05/22 09:25:18;;;;;;;108.30;37.05;;;;;;;;;;6303971;22;20010;-94
2023/05/22 09:27:49;;;;;;;101.80;35.53;;;;;;;;;;6277885;22;20057;-94
2023/05/22 09:30:17;;;;;;;105.05;34.38;;;;;;;;;;6276815;22;20023;-95
2023/05/22 09:32:43;;;;;;;98.18;35.63;;;;;;;;;;6278162;22;20030;-96
2023/05/22 09:35:09;;;;;;;96.57;30.83;;;;;;;;;;6279109;22;20112;-95
2023/05/22 09:37:35;;;;;;;120.38;40.03;;;;;;;;;;6279531;22;20003;-93
2023/05/22 09:40:04;;;;;;;128.70;40.78;;;;;;;;;;6278654;22;20037;-95
2023/05/22 09:42:31;;;;;;;95.40;33.20;;;;;;;;;;6278027;22;20030;-94
2023/05/22 09:45:01;;;;;;;118.07;40.78;;;;;;;;;;6277553;22;20005;-94
2023/05/22 09:47:26;;;;;;;131.57;43.17;;;;;;;;;;6278398;22;20007;-94
2023/05/22 09:49:51;;;;;;;129.52;45.15;;;;;;;;;;6304071;22;20372;-93
2023/05/22 09:52:17;;;;;;;132.80;43.38;;;;;;;;;;6305250;22;20006;-94
2023/05/22 09:54:54;;;;;;;101.63;37.47;;;;;;;;;;6302717;22;20011;-94
2023/05/22 09:57:19;;;;;;;130.35;49.88;;;;;;;;;;6276619;22;20010;-93
2023/05/22 09:59:48;;;;;;;89.53;30.73;;;;;;;;;;6278300;22;20011;-96
2023/05/22 10:02:14;;;;;;;107.25;41.58;;;;;;;;;;6278379;22;20670;-93
2023/05/22 10:04:41;;;;;;;106.72;38.17;;;;;;;;;;6302561;22;19999;-95
2023/05/22 10:07:08;;;;;;;113.50;41.97;;;;;;;;;;6276355;22;20009;-94
2023/05/22 10:09:35;;;;;;;122.43;41.47;;;;;;;;;;6276179;22;20015;-94
2023/05/22 10:12:03;;;;;;;115.70;43.40;;;;;;;;;;6278629;22;20027;-93
2023/05/22 10:14:28;;;;;;;103.15;38.47;;;;;;;;;;6279101;22;20034;-93
2023/05/22 10:16:55;;;;;;;114.03;41.00;;;;;;;;;;6278230;22;20007;-92
2023/05/22 10:19:25;;;;;;;91.50;32.92;;;;;;;;;;6301321;22;20345;-96
2023/05/22 10:21:51;;;;;;;106.35;36.10;;;;;;;;;;6277966;22;20011;-94
2023/05/22 10:24:17;;;;;;;117.88;45.22;;;;;;;;;;6278212;22;19999;-96
2023/05/22 10:26:43;;;;;;;101.22;40.33;;;;;;;;;;6303607;22;20057;-94
2023/05/22 10:29:13;;;;;;;116.22;42.78;;;;;;;;;;6278039;22;20007;-94
2023/05/22 10:31:52;;;;;;;119.22;44.90;;;;;;;;;;6277447;22;19999;-92
2023/05/22 10:34:50;;;;;;;117.15;43.65;;;;;;;;;;6276422;22;20015;-93
2023/05/22 10:37:34;;;;;;;122.88;47.30;;;;;;;;;;6228516;22;20094;-92
2023/05/22 10:40:11;;;;;;;120.93;47.50;;;;;;;;;;6304557;22;20011;-95
2023/05/22 10:42:36;;;;;;;122.82;47.88;;;;;;;;;;6275977;22;20019;-93
2023/05/22 10:45:02;;;;;;;111.63;40.60;;;;;;;;;;6278922;22;20014;-94
2023/05/22 10:47:27;;;;;;;112.15;43.30;;;;;;;;;;6275966;22;19996;-96
2023/05/22 10:50:07;;;;;;;110.25;42.42;;;;;;;;;;6303976;22;20425;-94
2023/05/22 10:52:32;;;;;;;99.60;38.95;;;;;;;;;;6279480;22;20002;-96
2023/05/22 10:55:04;;;;;;;94.65;37.20;;;;;;;;;;6278696;22;20310;-96
2023/05/22 10:57:30;;;;;;;;;;;;;;;;;;6278157;22;19999;-95
2023/05/22 11:00:04;;;;;;;117.22;48.50;;;;;;;;;;6302270;22;19894;-96
2023/05/22 11:02:35;;;;;;;109.50;42.33;;;;;;;;;;6278953;22;20014;-94
2023/05/22 11:05:12;;;;;;;115.22;47.70;;;;;;;;;;6278177;22;20015;-94
2023/05/22 11:07:41;;;;;;;111.70;47.55;;;;;;;;;;6307727;22;20034;-95
2023/05/22 11:10:06;;;;;;;113.47;44.35;;;;;;;;;;6304555;22;20011;-95
2023/05/22 11:12:31;;;;;;;108.60;41.28;;;;;;;;;;6275835;22;20076;-95
2023/05/22 11:14:58;;;;;;;103.05;41.60;;;;;;;;;;6304779;22;20448;-96
2023/05/22 11:17:29;;;;;;;103.10;44.35;;;;;;;;;;6277411;22;20798;-94
2023/05/22 11:19:59;;;;;;;90.63;39.43;;;;;;;;;;6276154;22;20006;-95
2023/05/22 11:22:40;;;;;;;89.55;36.20;;;;;;;;;;6277715;22;20011;-92
2023/05/22 11:25:07;;;;;;;105.93;42.58;;;;;;;;;;6282186;22;20000;-96
2023/05/22 11:27:33;;;;;;;84.63;34.47;;;;;;;;;;6278351;22;20446;-95
2023/05/22 11:30:01;;;;;;;83.43;35.20;;;;;;;;;;6279733;22;20011;-95
2023/05/22 11:32:26;;;;;;;86.45;37.83;;;;;;;;;;6303784;22;20003;-95
2023/05/22 11:34:55;;;;;;;87.03;36.30;;;;;;;;;;6277752;22;20007;-95
2023/05/22 11:37:24;;;;;;;74.40;29.35;;;;;;;;;;6277236;22;20003;-95
2023/05/22 11:40:04;;;;;;;76.25;33.80;;;;;;;;;;6278150;22;20003;-94
2023/05/22 11:42:30;;;;;;;79.72;35.15;;;;;;;;;;6276856;22;20053;-96
2023/05/22 11:44:55;;;;;;;79.05;35.00;;;;;;;;;;6303615;22;20008;-95
2023/05/22 11:47:20;;;;;;;79.03;38.63;;;;;;;;;;6304697;22;20398;-96
2023/05/22 11:49:46;;;;;;;77.03;33.35;;;;;;;;;;6278595;22;20011;-96
2023/05/22 11:52:11;;;;;;;84.88;36.53;;;;;;;;;;6304320;22;20608;-95
2023/05/22 11:54:36;;;;;;;69.40;29.23;;;;;;;;;;6304840;22;20007;-94
2023/05/22 11:57:05;;;;;;;76.53;30.92;;;;;;;;;;6303963;22;20125;-95
2023/05/22 11:59:31;;;;;;;80.03;35.22;;;;;;;;;;6279104;22;20011;-95
2023/05/22 12:01:59;;;;;;;79.72;35.15;;;;;;;;;;6278638;22;19999;-95
2023/05/22 12:04:24;;;;;;;75.28;35.38;;;;;;;;;;6273491;22;20016;-95
2023/05/22 12:06:53;;;;;;;75.13;36.95;;;;;;;;;;6285211;22;20000;-94
2023/05/22 12:09:25;;;;;;;80.80;38.10;;;;;;;;;;6260489;22;20007;-95
2023/05/22 12:11:51;;;;;;;78.97;43.58;;;;;;;;;;6258725;22;20025;-94
2023/05/22 12:14:30;;;;;;;83.65;39.53;;;;;;;;;;6286153;22;20008;-95
2023/05/22 12:16:59;;;;;;;80.72;38.47;;;;;;;;;;6260520;22;20002;-94
2023/05/22 12:19:26;;;;;;;72.00;31.77;;;;;;;;;;6289090;22;20003;-94
2023/05/22 12:21:51;;;;;;;80.93;35.45;;;;;;;;;;6261059;22;20008;-94
2023/05/22 12:24:22;;;;;;;66.47;29.00;;;;;;;;;;6262205;22;19996;-94
2023/05/22 12:26:54;;;;;;;69.53;33.13;;;;;;;;;;6263270;22;20143;-94
2023/05/22 12:29:22;;;;;;;64.95;34.22;;;;;;;;;;6262475;22;20012;-94
2023/05/22 12:31:49;;;;;;;61.65;27.00;;;;;;;;;;6289841;22;20002;-94
2023/05/22 12:34:17;;;;;;;67.10;27.77;;;;;;;;;;6291006;22;20067;-94
2023/05/22 12:36:43;;;;;;;67.25;28.80;;;;;;;;;;6263742;22;20087;-94
2023/05/22 12:39:18;;;;;;;61.55;29.17;;;;;;;;;;6288908;22;19996;-94
2023/05/22 12:41:50;;;;;;;61.70;26.23;;;;;;;;;;6291974;22;19995;-95
2023/05/22 12:44:19;;;;;;;61.28;29.00;;;;;;;;;;6288692;22;20000;-95
2023/05/22 12:46:44;;;;;;;51.25;25.33;;;;;;;;;;6261077;22;19996;-94
2023/05/22 12:49:10;;;;;;;50.00;23.13;;;;;;;;;;6261609;22;20019;-95
2023/05/22 12:51:35;;;;;;;59.55;27.38;;;;;;;;;;6286937;22;20014;-95
2023/05/22 12:54:01;;;;;;;55.90;24.45;;;;;;;;;;6290417;22;19999;-95
2023/05/22 12:56:27;;;;;;;52.55;23.10;;;;;;;;;;6264184;22;20023;-95
2023/05/22 12:58:54;;;;;;;52.55;21.42;;;;;;;;;;6265359;22;20000;-94
2023/05/22 13:01:20;;;;;;;51.25;21.83;;;;;;;;;;6263682;22;20087;-95
2023/05/22 13:04:03;;;;;;;57.03;26.02;;;;;;;;;;6294146;22;20063;-94
2023/05/22 13:06:30;;;;;;;51.00;21.40;;;;;;;;;;6288885;22;20082;-94
2023/05/22 13:08:55;;;;;;;55.95;24.80;;;;;;;;;;6259450;22;20038;-94
2023/05/22 13:11:22;;;;;;;49.72;24.58;;;;;;;;;;6259031;22;20004;-94
2023/05/22 13:13:47;;;;;;;50.60;26.05;;;;;;;;;;6258261;22;20089;-94
2023/05/22 13:16:15;;;;;;;53.10;26.95;;;;;;;;;;6258125;22;20000;-94
2023/05/22 13:18:44;;;;;;;50.00;22.05;;;;;;;;;;6258509;22;20000;-95
2023/05/22 13:21:12;;;;;;;54.90;24.98;;;;;;;;;;6259017;22;20004;-93
2023/05/22 13:23:38;;;;;;;45.97;22.02;;;;;;;;;;6286529;22;20422;-93
2023/05/22 13:26:12;;;;;;;54.83;23.08;;;;;;;;;;6261197;22;20010;-94
2023/05/22 13:28:37;;;;;;;45.60;18.85;;;;;;;;;;6258874;22;20083;-94
2023/05/22 13:31:09;;;;;;;49.65;21.58;;;;;;;;;;6261216;22;20003;-95
2023/05/22 13:33:36;;;;;;;47.20;20.42;;;;;;;;;;6287566;22;20008;-95
2023/05/22 13:36:03;;;;;;;53.88;25.33;;;;;;;;;;6286848;22;20063;-95
2023/05/22 13:38:32;;;;;;;43.33;20.88;;;;;;;;;;6285097;22;20000;-95
2023/05/22 13:40:57;;;;;;;50.13;23.98;;;;;;;;;;6260050;22;19998;-95
2023/05/22 13:43:23;;;;;;;49.55;20.15;;;;;;;;;;6284128;22;20007;-94
2023/05/22 13:46:00;;;;;;;45.40;20.73;;;;;;;;;;6283887;22;20003;-94
2023/05/22 13:48:25;;;;;;;40.67;21.38;;;;;;;;;;6284341;22;20012;-94
2023/05/22 13:50:51;;;;;;;45.28;20.98;;;;;;;;;;6259275;22;20032;-95
2023/05/22 13:53:22;;;;;;;47.60;23.13;;;;;;;;;;6286650;22;20079;-95
2023/05/22 13:55:47;;;;;;;38.38;16.95;;;;;;;;;;6259682;22;20415;-94
2023/05/22 13:58:17;;;;;;;46.08;18.98;;;;;;;;;;6285751;22;20034;-94
2023/05/22 14:00:47;;;;;;;;;;;;;;;;;;6284900;22;20000;-94
2023/05/22 14:03:16;;;;;;;41.95;21.08;;;;;;;;;;6284480;22;20318;-95
2023/05/22 14:05:43;;;;;;;49.92;23.50;;;;;;;;;;6256793;22;20022;-95
2023/05/22 14:08:08;;;;;;;47.67;21.85;;;;;;;;;;6282375;22;20057;-94
2023/05/22 14:10:34;;;;;;;53.47;25.92;;;;;;;;;;6257273;22;20059;-95
2023/05/22 14:13:02;;;;;;;49.03;25.08;;;;;;;;;;6256552;22;20010;-95
2023/05/22 14:15:30;;;;;;;68.50;26.90;;;;;;;;;;6256238;22;20434;-95
2023/05/22 14:17:57;;;;;;;61.80;29.38;;;;;;;;;;6284423;22;20018;-95